• Join FlightAware (Why Join?)
  • Login
  • US Flag 
02:28AM EST


 

Airport Tracker/Info


-or-


 

Live Flight TrackerFlight Track Log ✈ UAL625 ✈ 30-Sep-2013 ✈ KDCA - KORD

Flight Track Log - Related Links

Times and Time Zones

All times are in EDT time to prevent confusion due to time zone crossing. See the UAL625 flight status page for this flight to view local times or setup timezone preferences in your user account.

Time Position Orientation Groundspeed Altitude Reporting Facility
EDT Latitude Longitude Course Direction KTS MPH feet Rate Location/Type
05:02PM 38.8333 -77.0333 270° West 138 159 1,100  Level Potomac TRACON
05:03PM 38.7833 -77.0333 180° South 146 168 3,000 1,620 Climbing Potomac TRACON
05:04PM 38.7667 -77.0667 237° Southwest 195 224 4,400 2,160 Climbing Potomac TRACON
05:05PM 38.7500 -77.1500 256° West 267 307 7,400 3,180 Climbing Potomac TRACON
05:06PM 39.0158 -77.5101 270° West  Level Estimated
05:06PM 38.7333 -77.2500 258° West 277 319 10,800  Level Potomac TRACON
05:07PM 39.0565 -77.6285 270° West  Level Estimated
05:07PM 38.7667 -77.3500 293° West 334 384 13,600  Level Potomac TRACON
05:08PM 39.0971 -77.7471 270° West  Level Estimated
05:08PM 38.8167 -77.4500 303° West 340 391 16,600  Level Potomac TRACON
05:11PM 38.9094 -77.7072 295° West 357 411 18,700 1,380 Climbing Washington Center
05:12PM 38.9219 -77.8250 278° West 363 418 21,100 2,280 Climbing Washington Center
05:13PM 38.9378 -77.9803 278° West 385 443 23,300 2,160 Climbing Washington Center
05:14PM 38.9514 -78.1194 277° West 399 459 25,500 1,980 Climbing Washington Center
05:15PM 38.9628 -78.2667 276° West 409 471 27,300 1,860 Climbing Washington Center
05:16PM 38.9739 -78.4192 275° West 416 479 29,200 1,680 Climbing Washington Center
05:17PM 38.9828 -78.5744 274° West 426 490 30,800 1,620 Climbing Washington Center
05:18PM 38.9933 -78.7325 275° West 439 505 32,500 1,080 Climbing Washington Center
05:19PM 39.0036 -78.8906 275° West 445 512 33,000 240 Climbing Washington Center
05:20PM 39.0117 -79.0486 274° West 445 512 33,000  Level Washington Center
05:21PM 39.0217 -79.2067 275° West 445 512 33,000  Level Washington Center
05:22PM 39.0314 -79.3622 275° West 445 512 33,000 540 Level Washington Center
05:23PM 39.0433 -79.5178 276° West 445 512 34,100 960 Climbing Washington Center
05:24PM 39.0547 -79.6733 275° West 445 512 35,000 900 Climbing Washington Center
05:25PM 39.0639 -79.8264 274° West 445 512 36,000 600 Climbing Washington Center
05:25PM 39.0647 -79.9008 271° West 426 490 36,000  Level Indianapolis Center
05:26PM 39.0744 -80.0433 275° West 415 478 36,000  Level Indianapolis Center
05:27PM 39.0833 -80.2008 274° West 419 482 36,000  Level Indianapolis Center
05:28PM 39.0919 -80.3519 274° West 423 487 36,000  Level Indianapolis Center
05:29PM 39.0989 -80.5003 273° West 418 481 36,000  Level Indianapolis Center
05:30PM 39.1097 -80.6794 275° West 419 482 36,000  Level Indianapolis Center
05:31PM 39.1172 -80.8294 274° West 420 483 36,000  Level Indianapolis Center
05:32PM 39.1244 -80.9764 274° West 416 479 36,000  Level Indianapolis Center
05:33PM 39.1469 -81.1214 281° West 415 478 36,000  Level Indianapolis Center
05:35PM 39.1958 -81.2517 296° West 413 475 36,000  Level Indianapolis Center
05:36PM 39.2586 -81.4039 298° West 404 465 36,000  Level Indianapolis Center
05:37PM 39.3094 -81.5325 297° West 404 465 36,000  Level Indianapolis Center
05:38PM 39.3614 -81.6614 298° West 406 467 36,000  Level Indianapolis Center
05:39PM 39.4139 -81.7900 298° West 405 466 36,000  Level Indianapolis Center
05:40PM 39.4653 -81.9181 297° West 403 464 36,000  Level Indianapolis Center
05:41PM 39.5164 -82.0472 297° West 404 465 36,000  Level Indianapolis Center
05:42PM 39.5700 -82.1803 298° West 402 463 36,000  Level Indianapolis Center
05:43PM 39.6311 -82.3342 297° West 401 461 36,000  Level Indianapolis Center
05:44PM 39.6817 -82.4644 297° West 405 466 36,000  Level Indianapolis Center
05:45PM 39.7328 -82.5931 297° West 404 465 36,000  Level Indianapolis Center
05:46PM 39.7844 -82.7217 298° West 403 464 36,000  Level Indianapolis Center
05:47PM 39.8344 -82.8525 296° West 406 467 36,000  Level Indianapolis Center
05:48PM 39.8844 -82.9811 297° West 403 464 36,000  Level Indianapolis Center
05:49PM 39.9447 -83.1367 297° West 405 466 36,000  Level Indianapolis Center
05:50PM 39.9944 -83.2656 297° West 404 465 36,000  Level Indianapolis Center
05:51PM 40.0442 -83.3944 297° West 405 466 36,000  Level Indianapolis Center
05:52PM 40.0939 -83.5239 297° West 405 466 36,000  Level Indianapolis Center
05:53PM 40.1647 -83.6672 303° West 397 457 36,000  Level Indianapolis Center
05:54PM 40.2311 -83.7825 307° West 397 457 36,000  Level Indianapolis Center
05:55PM 40.2964 -83.8975 307° West 397 457 36,000 -480 Level Indianapolis Center
05:56PM 40.3600 -84.0147 305° West 397 457 35,000 -960 Descending Indianapolis Center
05:57PM 40.4231 -84.1317 305° West 395 455 34,100 -540 Descending Indianapolis Center
05:58PM 40.4858 -84.2486 305° West 393 452 34,000 -60 Descending Indianapolis Center
05:59PM 40.5600 -84.3900 305° West 394 453 34,000  Level Indianapolis Center
06:00PM 40.6233 -84.5069 306° West 393 452 34,000  Level Indianapolis Center
06:01PM 40.6856 -84.6258 305° West 395 455 34,100  Climbing Indianapolis Center
06:02PM 40.7478 -84.7433 305° West 394 453 34,000 -60 Descending Indianapolis Center
06:03PM 40.8031 -84.8656 301° West 392 451 34,000  Level Indianapolis Center
06:05PM 40.8631 -85.0092 299° West 391 450 34,000  Level Indianapolis Center
06:06PM 40.9153 -85.1358 299° West 394 453 34,000  Level Indianapolis Center
06:07PM 40.9675 -85.2622 299° West 395 455 34,000 -240 Level Indianapolis Center
06:08PM 41.0192 -85.3883 299° West 393 452 33,600 -1,020 Descending Indianapolis Center
06:09PM 41.0828 -85.5406 299° West 396 456 31,900 -1,980 Descending Indianapolis Center
06:10PM 41.1367 -85.6714 299° West 404 465 29,600 -2,220 Descending Indianapolis Center
06:11PM 41.1883 -85.7992 298° West 399 459 27,400 -2,100 Descending Indianapolis Center
06:12PM 41.2372 -85.9225 298° West 385 443 25,300 -1,200 Descending Indianapolis Center
06:13PM 41.2867 -86.0472 298° West 384 442 25,000 -180 Descending Indianapolis Center
06:14PM 41.3211 -86.1839 289° West 390 449 25,000  Level Indianapolis Center
06:15PM 41.3658 -86.3614 289° West 416 479 25,000 -960 Level Indianapolis Center
06:16PM 41.4103 -86.5436 288° West 412 474 22,800 -2,100 Descending Chicago Center
06:17PM 41.4450 -86.6828 288° West 398 458 20,100 -2,700 Descending Chicago Center
06:18PM 41.4825 -86.8322 289° West 383 441 17,300 -2,520 Descending Chicago Center
06:19PM 41.5133 -86.9594 288° West 366 421 15,000 -2,400 Descending Chicago Center
06:20PM 41.5428 -87.0839 288° West 356 410 12,400 -1,440 Descending Chicago Center
06:21PM 41.5719 -87.2050 288° West 347 399 12,000 -420 Descending Chicago Center
06:22PM 41.6328 -87.3269 304° West 336 387 11,600 -780 Descending Chicago Center
06:23PM 41.6933 -87.4233 310° West 340 391 10,500 -540 Descending Chicago Center
06:26PM 41.8106 -87.6139 310° West 332 382 10,000 -720 Descending Chicago Center
06:27PM 41.8803 -87.6831 324° Northwest 287 330 8,300 -1,500 Descending Chicago Center
06:28PM 41.9667 -87.6833 360° North 278 320 7,000 -960 Descending Chicago TRACON
06:28PM 42.0167 -87.6833 360° North 242 278 6,500 -900 Descending Chicago TRACON
06:29PM 42.0833 -87.7000 349° North 237 273 5,300 -1,140 Descending Chicago TRACON
06:30PM 42.1000 -87.7667 289° West 219 252 4,300 -840 Descending Chicago TRACON
06:31PM 42.0833 -87.8167 246° West 160 184 3,700 -1,020 Descending Chicago TRACON
06:32PM 42.0500 -87.8333 200° South 152 175 2,400 -1,320 Descending Chicago TRACON
06:33PM 42.0167 -87.8667 217° Southwest 126 145 1,300 -1,140 Descending Chicago TRACON